createdAt,value
2023-05-15T00:00:37.952Z,101254.09
2023-05-15T00:03:04.912Z,101249.97
2023-05-15T00:05:31.920Z,101255.38
2023-05-15T00:07:58.804Z,101246.69
2023-05-15T00:10:25.549Z,101244.84
2023-05-15T00:12:52.295Z,101248.56
2023-05-15T00:15:19.002Z,101258.25
2023-05-15T00:17:45.800Z,101246.06
2023-05-15T00:20:13.020Z,101254.53
2023-05-15T00:22:39.851Z,101239.22
2023-05-15T00:25:07.279Z,101235.91
2023-05-15T00:27:34.086Z,101230.31
2023-05-15T00:30:03.764Z,101216.28
2023-05-15T00:32:30.679Z,101220.00
2023-05-15T00:34:57.490Z,101213.59
2023-05-15T00:37:24.406Z,101215.06
2023-05-15T00:39:51.562Z,101209.69
2023-05-15T00:42:18.936Z,101207.44
2023-05-15T00:44:46.725Z,101203.09
2023-05-15T00:47:16.076Z,101200.81
2023-05-15T00:49:43.503Z,101202.84
2023-05-15T00:52:11.910Z,101193.72
2023-05-15T00:54:38.689Z,101189.94
2023-05-15T00:57:07.589Z,101188.28
2023-05-15T00:59:39.020Z,101184.78
2023-05-15T01:02:05.968Z,101185.59
2023-05-15T01:04:32.736Z,101184.19
2023-05-15T01:06:59.549Z,101189.34
2023-05-15T01:09:30.106Z,101194.47
2023-05-15T01:11:59.694Z,101187.41
2023-05-15T01:14:27.476Z,101189.44
2023-05-15T01:16:54.327Z,101186.38
2023-05-15T01:19:21.328Z,101191.13
2023-05-15T01:22:14.573Z,101178.13
2023-05-15T01:24:41.275Z,101181.06
2023-05-15T01:27:26.195Z,101174.28
2023-05-15T01:30:39.526Z,101176.13
2023-05-15T01:33:23.281Z,101166.66
2023-05-15T01:36:06.052Z,101172.44
2023-05-15T01:38:39.941Z,101169.34
2023-05-15T01:41:29.372Z,101162.75
2023-05-15T01:44:08.515Z,101158.00
2023-05-15T01:46:39.699Z,101152.00
2023-05-15T01:49:11.133Z,101149.50
2023-05-15T01:51:39.414Z,101142.47
2023-05-15T01:54:09.063Z,101142.88
2023-05-15T01:56:37.681Z,101147.50
2023-05-15T01:59:05.645Z,101136.16
2023-05-15T02:01:33.241Z,101137.00
2023-05-15T02:04:02.642Z,101137.66
2023-05-15T02:06:32.348Z,101135.38
2023-05-15T02:09:02.475Z,101129.19
2023-05-15T02:11:30.901Z,101117.88
2023-05-15T02:13:59.269Z,101123.03
2023-05-15T02:16:26.044Z,101124.72
2023-05-15T02:18:53.073Z,101106.59
2023-05-15T02:21:25.279Z,101115.00
2023-05-15T02:23:51.938Z,101113.28
2023-05-15T02:26:31.178Z,101105.03
2023-05-15T02:29:16.183Z,101100.31
2023-05-15T02:32:00.226Z,101105.53
2023-05-15T02:34:31.768Z,101100.13
2023-05-15T02:37:01.437Z,101104.69
2023-05-15T02:39:29.476Z,101098.34
2023-05-15T02:41:58.070Z,101097.16
2023-05-15T02:44:26.203Z,101096.94
2023-05-15T02:46:54.258Z,101091.63
2023-05-15T02:49:22.243Z,101081.94
2023-05-15T02:51:49.083Z,101081.53
2023-05-15T02:54:15.878Z,101077.00
2023-05-15T02:56:42.859Z,101076.19
2023-05-15T02:59:09.617Z,101076.53
2023-05-15T03:01:36.435Z,101077.03
2023-05-15T03:04:03.348Z,101075.59
2023-05-15T03:06:31.696Z,101071.28
2023-05-15T03:08:58.477Z,101073.38
2023-05-15T03:11:25.314Z,101071.53
2023-05-15T03:13:52.071Z,101069.28
2023-05-15T03:16:18.838Z,101074.88
2023-05-15T03:18:46.305Z,101074.63
2023-05-15T03:21:13.544Z,101069.66
2023-05-15T03:23:40.599Z,101074.38
2023-05-15T03:26:07.417Z,101067.91
2023-05-15T03:28:34.272Z,101070.59
2023-05-15T03:31:01.162Z,101065.66
2023-05-15T03:33:27.902Z,101064.34
2023-05-15T03:35:54.602Z,101058.59
2023-05-15T03:38:21.736Z,101052.59
2023-05-15T03:40:50.854Z,101059.41
2023-05-15T03:43:17.899Z,101054.00
2023-05-15T03:45:44.657Z,101045.56
2023-05-15T03:48:11.512Z,101045.97
2023-05-15T03:50:39.418Z,101040.38
2023-05-15T03:53:06.265Z,101041.28
2023-05-15T03:55:33.217Z,101034.13
2023-05-15T03:58:00.038Z,101031.94
2023-05-15T04:00:27.985Z,101024.06
2023-05-15T04:02:55.053Z,101028.19
2023-05-15T04:05:22.633Z,101028.94
2023-05-15T04:07:49.598Z,101028.13
2023-05-15T04:10:16.394Z,101030.47
2023-05-15T04:12:43.172Z,101020.38
2023-05-15T04:15:26.337Z,101015.19
2023-05-15T04:17:54.348Z,101031.28
2023-05-15T04:20:23.020Z,101033.56
2023-05-15T04:22:50.683Z,101033.47
2023-05-15T04:25:18.175Z,101037.84
2023-05-15T04:27:45.218Z,101036.22
2023-05-15T04:30:12.780Z,101037.16
2023-05-15T04:32:40.445Z,101041.03
2023-05-15T04:35:13.389Z,101041.66
2023-05-15T04:37:41.322Z,101043.25
2023-05-15T04:40:09.476Z,101044.97
2023-05-15T04:42:38.824Z,101054.22
2023-05-15T04:45:07.027Z,101052.47
2023-05-15T04:47:33.975Z,101056.84
2023-05-15T04:50:03.289Z,101061.41
2023-05-15T04:52:30.218Z,101055.06
2023-05-15T04:54:57.002Z,101054.81
2023-05-15T04:57:23.972Z,101057.94
2023-05-15T04:59:50.756Z,101057.72
2023-05-15T05:02:22.151Z,101056.31
2023-05-15T05:04:49.248Z,101060.41
2023-05-15T05:07:16.131Z,101062.03
2023-05-15T05:09:43.038Z,101061.63
2023-05-15T05:12:10.358Z,101056.72
2023-05-15T05:14:37.238Z,101054.66
2023-05-15T05:17:04.258Z,101063.03
2023-05-15T05:19:31.161Z,101052.94
2023-05-15T05:22:01.353Z,101054.41
2023-05-15T05:24:28.559Z,101050.53
2023-05-15T05:26:58.119Z,101048.50
2023-05-15T05:29:25.701Z,101047.03
2023-05-15T05:31:53.084Z,101045.00
2023-05-15T05:34:20.374Z,101038.03
2023-05-15T05:36:47.221Z,101034.91
2023-05-15T05:39:14.356Z,101033.53
2023-05-15T05:41:41.153Z,101028.16
2023-05-15T05:44:08.044Z,101029.63
2023-05-15T05:46:35.223Z,101020.94
2023-05-15T05:49:02.029Z,101011.03
2023-05-15T05:51:28.798Z,101010.28
2023-05-15T05:53:55.585Z,101014.97
2023-05-15T05:56:22.767Z,101016.81
2023-05-15T05:58:49.577Z,101012.31
2023-05-15T06:01:16.584Z,101012.91
2023-05-15T06:03:43.797Z,101006.34
2023-05-15T06:06:10.897Z,101014.63
2023-05-15T06:08:37.740Z,101022.00
2023-05-15T06:11:05.213Z,101024.88
2023-05-15T06:13:31.954Z,101045.28
2023-05-15T06:15:58.724Z,101043.16
2023-05-15T06:18:25.593Z,101039.44
2023-05-15T06:20:53.431Z,101047.47
2023-05-15T06:23:20.637Z,101040.69
2023-05-15T06:25:48.593Z,101035.75
2023-05-15T06:28:15.430Z,101037.56
2023-05-15T06:30:42.740Z,101044.00
2023-05-15T06:33:09.633Z,101044.25
2023-05-15T06:35:36.442Z,101045.06
2023-05-15T06:38:03.333Z,101038.09
2023-05-15T06:40:30.221Z,101037.69
2023-05-15T06:42:56.913Z,101045.00
2023-05-15T06:45:23.912Z,101038.44
2023-05-15T06:47:50.941Z,101040.56
2023-05-15T06:50:17.717Z,101038.72
2023-05-15T06:52:44.512Z,101044.31
2023-05-15T06:55:11.320Z,101048.88
2023-05-15T06:57:38.123Z,101045.16
2023-05-15T07:00:05.936Z,101042.84
2023-05-15T07:02:32.695Z,101047.41
2023-05-15T07:04:59.481Z,101041.81
2023-05-15T07:07:26.266Z,101039.50
2023-05-15T07:09:53.045Z,101042.19
2023-05-15T07:12:19.755Z,101041.41
2023-05-15T07:14:46.539Z,101048.78
2023-05-15T07:17:13.790Z,101051.66
2023-05-15T07:19:40.695Z,101058.28
2023-05-15T07:22:07.918Z,101052.22
2023-05-15T07:24:34.715Z,101061.31
2023-05-15T07:27:01.552Z,101062.09
2023-05-15T07:29:28.331Z,101057.00
2023-05-15T07:31:55.156Z,101066.28
2023-05-15T07:34:22.124Z,101060.31
2023-05-15T07:36:49.001Z,101067.94
2023-05-15T07:39:16.126Z,101060.84
2023-05-15T07:41:42.885Z,101056.91
2023-05-15T07:44:10.755Z,101052.41
2023-05-15T07:46:39.015Z,101060.88
2023-05-15T07:49:05.955Z,101059.25
2023-05-15T07:51:32.714Z,101052.03
2023-05-15T07:53:59.421Z,101057.78
2023-05-15T07:56:26.262Z,101046.97
2023-05-15T07:58:54.189Z,101047.16
2023-05-15T08:01:20.875Z,101042.25
2023-05-15T08:03:47.730Z,101041.63
2023-05-15T08:06:14.659Z,101041.53
2023-05-15T08:08:41.412Z,101049.00
2023-05-15T08:11:08.244Z,101045.91
2023-05-15T08:13:35.017Z,101047.31
2023-05-15T08:16:01.771Z,101047.59
2023-05-15T08:18:28.561Z,101032.63
2023-05-15T08:20:55.308Z,101037.69
2023-05-15T08:23:22.088Z,101026.84
2023-05-15T08:25:48.796Z,101022.22
2023-05-15T08:28:15.577Z,101026.41
2023-05-15T08:30:42.397Z,101013.28
2023-05-15T08:33:09.360Z,101007.22
2023-05-15T08:35:36.146Z,101001.50
2023-05-15T08:38:03.278Z,101005.56
2023-05-15T08:40:39.308Z,101010.78
2023-05-15T08:43:15.718Z,101001.44
2023-05-15T08:45:43.662Z,101002.13
2023-05-15T08:48:20.668Z,100998.84
2023-05-15T08:50:47.896Z,100999.44
2023-05-15T08:53:14.979Z,101006.50
2023-05-15T08:55:42.448Z,100999.25
2023-05-15T08:58:09.495Z,100984.22
2023-05-15T09:00:36.383Z,100983.94
2023-05-15T09:03:03.310Z,100981.34
2023-05-15T09:05:30.790Z,100984.84
2023-05-15T09:07:59.872Z,100986.69
2023-05-15T09:10:26.793Z,100977.41
2023-05-15T09:12:54.698Z,100974.81
2023-05-15T09:15:25.414Z,100978.59
2023-05-15T09:17:52.727Z,100980.72
2023-05-15T09:20:37.757Z,100981.47
2023-05-15T09:23:21.737Z,100973.13
2023-05-15T09:25:53.217Z,100982.47
2023-05-15T09:28:28.037Z,100972.72
2023-05-15T09:31:03.023Z,100974.94
2023-05-15T09:33:41.616Z,100971.41
2023-05-15T09:36:09.763Z,100966.75
2023-05-15T09:38:48.549Z,100971.34
2023-05-15T09:41:24.324Z,100970.28
2023-05-15T09:43:51.157Z,100967.91
2023-05-15T09:46:18.059Z,100962.50
2023-05-15T09:48:45.139Z,100961.69
2023-05-15T09:51:17.911Z,100967.00
2023-05-15T09:53:54.317Z,100962.19
2023-05-15T09:56:22.160Z,100965.09
2023-05-15T09:58:56.191Z,100955.44
2023-05-15T10:01:24.198Z,100951.31
2023-05-15T10:04:02.216Z,100946.75
2023-05-15T10:06:42.787Z,100950.19
2023-05-15T10:09:11.048Z,100933.31
2023-05-15T10:11:39.774Z,100937.56
2023-05-15T10:14:08.636Z,100935.25
2023-05-15T10:16:37.018Z,100945.84
2023-05-15T10:19:05.761Z,100946.25
2023-05-15T10:21:34.967Z,100947.22
2023-05-15T10:24:02.711Z,100932.53
2023-05-15T10:26:36.408Z,100937.78
2023-05-15T10:29:14.545Z,100929.81
2023-05-15T10:31:41.676Z,100921.03
2023-05-15T10:34:10.309Z,100926.81
2023-05-15T10:36:38.583Z,100931.50
2023-05-15T10:39:06.670Z,100915.81
2023-05-15T10:41:37.347Z,100919.34
2023-05-15T10:44:04.307Z,100920.31
2023-05-15T10:46:34.819Z,100916.81
2023-05-15T10:49:01.859Z,100915.34
2023-05-15T10:51:31.871Z,100907.84
2023-05-15T10:54:03.712Z,100907.47
2023-05-15T10:56:31.011Z,100902.94
2023-05-15T10:58:58.045Z,100904.50
2023-05-15T11:01:33.110Z,100907.13
2023-05-15T11:04:17.247Z,100895.41
2023-05-15T11:06:46.113Z,100896.16
2023-05-15T11:09:22.276Z,100904.59
2023-05-15T11:11:52.412Z,100906.31
2023-05-15T11:14:19.724Z,100910.72
2023-05-15T11:16:55.868Z,100904.59
2023-05-15T11:19:28.956Z,100897.88
2023-05-15T11:22:00.057Z,100899.81
2023-05-15T11:24:30.339Z,100896.56
2023-05-15T11:27:01.739Z,100900.19
2023-05-15T11:29:28.991Z,100895.72
2023-05-15T11:31:55.979Z,100889.84
2023-05-15T11:34:35.722Z,100891.22
2023-05-15T11:37:02.430Z,100896.41
2023-05-15T11:39:29.318Z,100892.53
2023-05-15T11:41:56.817Z,100897.53
2023-05-15T11:44:26.713Z,100893.94
2023-05-15T11:46:53.764Z,100904.75
2023-05-15T11:49:20.951Z,100896.97
2023-05-15T11:51:51.506Z,100900.25
2023-05-15T11:54:18.869Z,100890.91
2023-05-15T11:56:45.743Z,100885.00
2023-05-15T11:59:17.367Z,100892.47
2023-05-15T12:01:47.701Z,100882.66
2023-05-15T12:04:18.911Z,100871.84
2023-05-15T12:06:49.886Z,100869.34
2023-05-15T12:09:19.539Z,100879.84
2023-05-15T12:11:52.016Z,100875.59
2023-05-15T12:14:29.735Z,100874.91
2023-05-15T12:17:04.550Z,100871.84
2023-05-15T12:19:31.790Z,100868.00
2023-05-15T12:21:58.593Z,100869.97
2023-05-15T12:24:26.745Z,100868.09
2023-05-15T12:26:55.953Z,100865.06
2023-05-15T12:29:24.597Z,100863.44
2023-05-15T12:31:53.997Z,100866.13
2023-05-15T12:34:22.008Z,100869.53
2023-05-15T12:36:48.904Z,100867.22
2023-05-15T12:39:15.858Z,100870.16
2023-05-15T12:41:46.028Z,100860.47
2023-05-15T12:44:21.080Z,100862.84
2023-05-15T12:46:48.316Z,100858.69
2023-05-15T12:49:21.728Z,100856.06
2023-05-15T12:51:48.620Z,100861.97
2023-05-15T12:54:19.827Z,100858.13
2023-05-15T12:56:50.002Z,100854.72
2023-05-15T12:59:16.956Z,100855.03
2023-05-15T13:01:45.136Z,100857.69
2023-05-15T13:04:12.113Z,100859.66
2023-05-15T13:06:46.385Z,100861.59
2023-05-15T13:09:14.195Z,100864.16
2023-05-15T13:11:45.101Z,100853.91
2023-05-15T13:14:17.471Z,100860.47
2023-05-15T13:16:47.402Z,100863.03
2023-05-15T13:19:15.840Z,100867.34
2023-05-15T13:21:43.957Z,100869.44
2023-05-15T13:24:10.802Z,100868.56
2023-05-15T13:26:37.927Z,100872.56
2023-05-15T13:29:04.773Z,100861.53
2023-05-15T13:31:32.215Z,100860.91
2023-05-15T13:33:59.075Z,100860.53
2023-05-15T13:36:25.838Z,100860.06
2023-05-15T13:38:52.610Z,100858.84
2023-05-15T13:41:19.397Z,100861.97
2023-05-15T13:43:49.481Z,100863.06
2023-05-15T13:46:16.492Z,100870.91
2023-05-15T13:48:43.552Z,100869.66
2023-05-15T13:51:10.649Z,100869.22
2023-05-15T13:53:37.423Z,100875.09
2023-05-15T13:56:04.308Z,100875.88
2023-05-15T13:58:31.201Z,100869.09
2023-05-15T14:00:58.013Z,100871.94
2023-05-15T14:03:24.859Z,100867.69
2023-05-15T14:05:51.925Z,100875.91
2023-05-15T14:08:18.796Z,100875.03
2023-05-15T14:10:45.605Z,100870.97
2023-05-15T14:13:12.321Z,100863.09
2023-05-15T14:15:39.035Z,100861.50
2023-05-15T14:18:05.873Z,100863.47
2023-05-15T14:20:32.639Z,100862.75
2023-05-15T14:22:59.431Z,100861.25
2023-05-15T14:25:26.172Z,100863.34
2023-05-15T14:27:53.009Z,100863.69
2023-05-15T14:30:21.945Z,100851.63
2023-05-15T14:32:48.770Z,100855.97
2023-05-15T14:35:15.645Z,100853.16
2023-05-15T14:37:43.354Z,100844.81
2023-05-15T14:40:10.732Z,100846.19
2023-05-15T14:42:37.526Z,100844.03
2023-05-15T14:45:05.039Z,100835.25
2023-05-15T14:47:32.100Z,100831.38
2023-05-15T14:49:59.040Z,100825.31
2023-05-15T14:52:25.906Z,100828.09
2023-05-15T14:55:04.921Z,100829.31
2023-05-15T14:57:35.154Z,100835.94
2023-05-15T15:00:02.134Z,100838.50
2023-05-15T15:02:29.224Z,100842.44
2023-05-15T15:04:56.082Z,100840.66
2023-05-15T15:07:22.840Z,100847.47
2023-05-15T15:09:49.612Z,100852.75
2023-05-15T15:12:16.423Z,100859.31
2023-05-15T15:14:43.162Z,100860.28
2023-05-15T15:17:09.901Z,100856.28
2023-05-15T15:19:36.602Z,100857.94
2023-05-15T15:22:03.645Z,100850.19
2023-05-15T15:24:30.451Z,100850.19
2023-05-15T15:26:57.239Z,100845.84
2023-05-15T15:29:24.049Z,100843.53
2023-05-15T15:31:50.812Z,100847.75
2023-05-15T15:34:17.627Z,100846.00
2023-05-15T15:36:45.075Z,100848.47
2023-05-15T15:39:13.188Z,100838.03
2023-05-15T15:41:39.997Z,100841.78
2023-05-15T15:44:06.806Z,100831.00
2023-05-15T15:46:33.717Z,100836.94
2023-05-15T15:49:00.561Z,100836.22
2023-05-15T15:51:27.322Z,100837.28
2023-05-15T15:53:54.087Z,100842.19
2023-05-15T15:56:21.401Z,100845.09
2023-05-15T15:58:48.289Z,100842.66
2023-05-15T16:01:15.390Z,100846.63
2023-05-15T16:03:42.298Z,100849.22
2023-05-15T16:06:09.069Z,100848.75
2023-05-15T16:08:35.848Z,100850.75
2023-05-15T16:11:02.744Z,100853.91
2023-05-15T16:13:29.564Z,100863.28
2023-05-15T16:15:56.819Z,100850.53
2023-05-15T16:18:23.774Z,100851.34
2023-05-15T16:20:50.570Z,100841.84
2023-05-15T16:23:17.498Z,100839.88
2023-05-15T16:25:45.271Z,100834.94
2023-05-15T16:28:12.236Z,100841.00
2023-05-15T16:33:09.091Z,100839.38
2023-05-15T16:35:39.341Z,100841.25
2023-05-15T16:38:06.068Z,100845.47
2023-05-15T16:40:32.889Z,100838.69
2023-05-15T16:42:59.668Z,100841.25
2023-05-15T16:45:26.526Z,100845.72
2023-05-15T16:47:53.415Z,100843.00
2023-05-15T16:50:20.618Z,100842.78
2023-05-15T16:52:48.200Z,100845.81
2023-05-15T16:55:16.508Z,100847.59
2023-05-15T16:57:46.715Z,100849.34
2023-05-15T17:00:14.532Z,100847.47
2023-05-15T17:02:44.422Z,100850.75
2023-05-15T17:05:11.665Z,100847.59
2023-05-15T17:07:39.088Z,100849.00
2023-05-15T17:10:07.462Z,100856.75
2023-05-15T17:12:34.903Z,100850.44
2023-05-15T17:15:01.814Z,100849.41
2023-05-15T17:17:28.692Z,100840.16
2023-05-15T17:19:56.162Z,100851.50
2023-05-15T17:22:23.353Z,100851.94
2023-05-15T17:24:52.196Z,100845.41
2023-05-15T17:27:19.793Z,100852.09
2023-05-15T17:29:47.465Z,100854.19
2023-05-15T17:32:14.461Z,100854.56
2023-05-15T17:34:41.384Z,100859.59
2023-05-15T17:37:09.367Z,100862.66
2023-05-15T17:39:36.242Z,100859.59
2023-05-15T17:42:03.524Z,100864.53
2023-05-15T17:44:31.279Z,100867.56
2023-05-15T17:46:58.824Z,100870.84
2023-05-15T17:49:26.482Z,100871.91
2023-05-15T17:51:53.999Z,100874.72
2023-05-15T17:54:20.928Z,100871.56
2023-05-15T17:56:48.159Z,100871.31
2023-05-15T17:59:14.953Z,100872.72
2023-05-15T18:01:41.840Z,100878.94
2023-05-15T18:04:08.858Z,100880.94
2023-05-15T18:06:35.914Z,100872.97
2023-05-15T18:09:03.318Z,100879.44
2023-05-15T18:11:30.112Z,100879.88
2023-05-15T18:13:56.992Z,100879.66
2023-05-15T18:16:23.866Z,100883.53
2023-05-15T18:18:52.238Z,100874.38
2023-05-15T18:21:19.210Z,100885.41
2023-05-15T18:23:46.150Z,100888.34
2023-05-15T18:26:12.993Z,100889.41
2023-05-15T18:28:39.808Z,100886.09
2023-05-15T18:31:06.662Z,100895.47
2023-05-15T18:33:34.192Z,100889.13
2023-05-15T18:36:01.066Z,100888.44
2023-05-15T18:38:28.300Z,100882.44
2023-05-15T18:40:55.093Z,100881.25
2023-05-15T18:43:21.849Z,100889.22
2023-05-15T18:45:48.620Z,100886.25
2023-05-15T18:48:15.711Z,100881.78
2023-05-15T18:50:42.601Z,100884.25
2023-05-15T18:53:09.418Z,100884.59
2023-05-15T18:55:36.247Z,100888.56
2023-05-15T18:58:03.056Z,100882.13
2023-05-15T19:00:38.145Z,100892.19
2023-05-15T19:03:08.597Z,100883.50
2023-05-15T19:05:35.702Z,100883.16
2023-05-15T19:08:03.152Z,100887.34
2023-05-15T19:10:30.660Z,100895.19
2023-05-15T19:12:58.386Z,100901.72
2023-05-15T19:15:25.706Z,100903.00
2023-05-15T19:17:52.831Z,100912.38
2023-05-15T19:20:20.135Z,100912.59
2023-05-15T19:22:46.931Z,100901.59
2023-05-15T19:25:13.661Z,100895.84
2023-05-15T19:27:40.646Z,100902.03
2023-05-15T19:30:09.415Z,100905.56
2023-05-15T19:32:36.633Z,100913.28
2023-05-15T19:35:03.522Z,100914.53
2023-05-15T19:37:30.434Z,100917.84
2023-05-15T19:39:57.228Z,100911.63
2023-05-15T19:42:24.034Z,100922.63
2023-05-15T19:44:51.996Z,100920.63
2023-05-15T19:47:18.741Z,100922.72
2023-05-15T19:49:45.660Z,100916.50
2023-05-15T19:52:12.435Z,100920.25
2023-05-15T19:54:39.197Z,100920.84
2023-05-15T19:57:05.959Z,100921.66
2023-05-15T19:59:32.653Z,100923.53
2023-05-15T20:02:00.425Z,100932.22
2023-05-15T20:04:27.914Z,100932.66
2023-05-15T20:06:54.836Z,100929.59
2023-05-15T20:09:21.667Z,100935.22
2023-05-15T20:11:48.450Z,100932.44
2023-05-15T20:14:15.359Z,100937.06
2023-05-15T20:16:42.176Z,100939.53
2023-05-15T20:19:10.968Z,100948.19
2023-05-15T20:21:38.388Z,100948.28
2023-05-15T20:24:06.001Z,100949.09
2023-05-15T20:26:32.789Z,100950.75
2023-05-15T20:28:59.495Z,100959.91
2023-05-15T20:31:26.248Z,100958.88
2023-05-15T20:33:53.070Z,100952.50
2023-05-15T20:36:20.220Z,100952.69
2023-05-15T20:38:47.696Z,100943.19
2023-05-15T20:41:16.500Z,100943.56
2023-05-15T20:43:43.257Z,100946.38
2023-05-15T20:46:10.267Z,100955.53
2023-05-15T20:48:37.445Z,100954.16
2023-05-15T20:51:04.428Z,100950.31
2023-05-15T20:53:31.151Z,100956.91
2023-05-15T20:55:57.937Z,100954.69
2023-05-15T20:58:24.663Z,100959.16
2023-05-15T21:00:51.478Z,100954.84
2023-05-15T21:03:18.339Z,100957.31
2023-05-15T21:05:45.322Z,100955.66
2023-05-15T21:08:12.180Z,100961.03
2023-05-15T21:10:38.949Z,100954.00
2023-05-15T21:13:05.771Z,100954.75
2023-05-15T21:15:32.528Z,100951.63
2023-05-15T21:17:59.326Z,100952.00
2023-05-15T21:20:27.096Z,100953.19
2023-05-15T21:22:54.204Z,100951.13
2023-05-15T21:25:21.552Z,100960.63
2023-05-15T21:27:48.407Z,100956.72
2023-05-15T21:30:15.350Z,100954.03
2023-05-15T21:32:42.116Z,100954.09
2023-05-15T21:35:10.246Z,100959.25
2023-05-15T21:37:37.055Z,100945.88
2023-05-15T21:40:04.980Z,100939.34
2023-05-15T21:42:32.236Z,100938.59
2023-05-15T21:44:59.525Z,100937.59
2023-05-15T21:47:26.272Z,100932.06
2023-05-15T21:49:53.094Z,100935.78
2023-05-15T21:52:19.838Z,100933.09
2023-05-15T21:54:46.633Z,100936.00
2023-05-15T21:57:13.439Z,100934.97
2023-05-15T21:59:40.281Z,100923.63
2023-05-15T22:04:51.594Z,100924.78
2023-05-15T22:07:18.665Z,100920.63
2023-05-15T22:09:45.680Z,100910.72
2023-05-15T22:12:13.435Z,100902.47
2023-05-15T22:14:54.681Z,100906.81
2023-05-15T22:17:27.340Z,100913.72
2023-05-15T22:19:54.448Z,100913.59
2023-05-15T22:22:21.473Z,100912.63
2023-05-15T22:24:48.361Z,100910.66
2023-05-15T22:27:16.836Z,100912.06
2023-05-15T22:29:43.833Z,100908.13
2023-05-15T22:32:10.854Z,100908.38
2023-05-15T22:34:37.762Z,100899.53
2023-05-15T22:37:04.828Z,100899.53
2023-05-15T22:39:32.079Z,100901.59
2023-05-15T22:41:58.904Z,100893.53
2023-05-15T22:44:25.778Z,100893.97
2023-05-15T22:46:53.228Z,100895.22
2023-05-15T22:49:23.772Z,100901.00
2023-05-15T22:51:50.885Z,100886.72
2023-05-15T22:54:54.759Z,100893.13
2023-05-15T22:57:21.661Z,100888.88
2023-05-15T22:59:48.506Z,100894.50
2023-05-15T23:02:15.450Z,100890.34
2023-05-15T23:04:43.319Z,100887.44
2023-05-15T23:07:10.241Z,100890.59
2023-05-15T23:09:37.090Z,100884.22
2023-05-15T23:12:04.499Z,100889.16
2023-05-15T23:14:31.361Z,100877.00
2023-05-15T23:16:58.176Z,100874.53
2023-05-15T23:19:25.083Z,100874.38
2023-05-15T23:21:52.160Z,100875.88
2023-05-15T23:24:18.998Z,100874.91
2023-05-15T23:26:47.073Z,100871.16
2023-05-15T23:29:14.669Z,100873.50
2023-05-15T23:31:43.267Z,100873.09
2023-05-15T23:34:10.221Z,100863.22
2023-05-15T23:36:37.053Z,100866.91
2023-05-15T23:39:05.156Z,100872.88
2023-05-15T23:41:31.990Z,100875.81
2023-05-15T23:43:58.804Z,100883.25
2023-05-15T23:46:25.817Z,100870.47
2023-05-15T23:48:52.753Z,100874.59
2023-05-15T23:51:20.611Z,100873.97
2023-05-15T23:53:47.531Z,100879.97
2023-05-15T23:56:14.368Z,100872.56
2023-05-15T23:58:41.811Z,100877.06
